sensor_id;sensor_type;location;lat;lon;timestamp;P1;durP1;ratioP1;P2;durP2;ratioP2
51296;SDS011;37380;45.186;9.792;2023-11-21T00:00:14;76.60;;;61.55;;
51296;SDS011;37380;45.186;9.792;2023-11-21T00:02:42;76.43;;;61.05;;
51296;SDS011;37380;45.186;9.792;2023-11-21T00:05:09;85.63;;;63.40;;
51296;SDS011;37380;45.186;9.792;2023-11-21T00:07:39;79.25;;;60.00;;
51296;SDS011;37380;45.186;9.792;2023-11-21T00:10:07;75.50;;;63.85;;
51296;SDS011;37380;45.186;9.792;2023-11-21T00:12:37;86.53;;;65.10;;
51296;SDS011;37380;45.186;9.792;2023-11-21T00:15:04;79.25;;;63.45;;
51296;SDS011;37380;45.186;9.792;2023-11-21T00:17:32;80.55;;;62.65;;
51296;SDS011;37380;45.186;9.792;2023-11-21T00:19:59;72.30;;;62.22;;
51296;SDS011;37380;45.186;9.792;2023-11-21T00:22:27;79.57;;;61.10;;
51296;SDS011;37380;45.186;9.792;2023-11-21T00:24:54;79.40;;;63.72;;
51296;SDS011;37380;45.186;9.792;2023-11-21T00:27:21;87.05;;;62.40;;
51296;SDS011;37380;45.186;9.792;2023-11-21T00:29:48;79.45;;;63.50;;
51296;SDS011;37380;45.186;9.792;2023-11-21T00:32:16;68.72;;;59.08;;
51296;SDS011;37380;45.186;9.792;2023-11-21T00:34:43;82.40;;;62.55;;
51296;SDS011;37380;45.186;9.792;2023-11-21T00:37:10;80.00;;;62.83;;
51296;SDS011;37380;45.186;9.792;2023-11-21T00:39:37;77.75;;;61.38;;
51296;SDS011;37380;45.186;9.792;2023-11-21T00:42:05;81.18;;;59.75;;
51296;SDS011;37380;45.186;9.792;2023-11-21T00:44:33;78.55;;;62.65;;
51296;SDS011;37380;45.186;9.792;2023-11-21T00:47:02;89.82;;;59.17;;
51296;SDS011;37380;45.186;9.792;2023-11-21T00:49:29;79.63;;;61.03;;
51296;SDS011;37380;45.186;9.792;2023-11-21T00:51:57;76.55;;;60.67;;
51296;SDS011;37380;45.186;9.792;2023-11-21T00:54:27;82.03;;;60.83;;
51296;SDS011;37380;45.186;9.792;2023-11-21T00:56:54;69.95;;;61.03;;
51296;SDS011;37380;45.186;9.792;2023-11-21T00:59:22;78.68;;;59.95;;
51296;SDS011;37380;45.186;9.792;2023-11-21T01:01:50;73.97;;;60.47;;
51296;SDS011;37380;45.186;9.792;2023-11-21T01:04:17;74.53;;;62.17;;
51296;SDS011;37380;45.186;9.792;2023-11-21T01:06:44;72.97;;;57.03;;
51296;SDS011;37380;45.186;9.792;2023-11-21T01:09:12;74.10;;;58.20;;
51296;SDS011;37380;45.186;9.792;2023-11-21T01:11:39;72.90;;;57.75;;
51296;SDS011;37380;45.186;9.792;2023-11-21T01:14:07;69.50;;;55.17;;
51296;SDS011;37380;45.186;9.792;2023-11-21T01:16:35;74.05;;;58.13;;
51296;SDS011;37380;45.186;9.792;2023-11-21T01:19:03;66.13;;;54.40;;
51296;SDS011;37380;45.186;9.792;2023-11-21T01:21:31;60.13;;;52.40;;
51296;SDS011;37380;45.186;9.792;2023-11-21T01:23:58;67.95;;;54.15;;
51296;SDS011;37380;45.186;9.792;2023-11-21T01:26:25;67.22;;;53.45;;
51296;SDS011;37380;45.186;9.792;2023-11-21T01:28:52;78.90;;;52.88;;
51296;SDS011;37380;45.186;9.792;2023-11-21T01:31:20;66.18;;;48.30;;
51296;SDS011;37380;45.186;9.792;2023-11-21T01:33:48;68.47;;;50.00;;
51296;SDS011;37380;45.186;9.792;2023-11-21T01:36:15;72.72;;;53.08;;
51296;SDS011;37380;45.186;9.792;2023-11-21T01:38:44;69.90;;;49.90;;
51296;SDS011;37380;45.186;9.792;2023-11-21T01:41:12;67.25;;;47.03;;
51296;SDS011;37380;45.186;9.792;2023-11-21T01:43:40;66.10;;;47.50;;
51296;SDS011;37380;45.186;9.792;2023-11-21T01:46:08;52.33;;;43.88;;
51296;SDS011;37380;45.186;9.792;2023-11-21T01:48:36;64.82;;;49.50;;
51296;SDS011;37380;45.186;9.792;2023-11-21T01:51:05;55.95;;;43.33;;
51296;SDS011;37380;45.186;9.792;2023-11-21T01:53:32;64.93;;;45.85;;
51296;SDS011;37380;45.186;9.792;2023-11-21T01:56:00;67.65;;;47.13;;
51296;SDS011;37380;45.186;9.792;2023-11-21T01:58:27;60.40;;;44.97;;
51296;SDS011;37380;45.186;9.792;2023-11-21T02:00:54;56.90;;;42.88;;
51296;SDS011;37380;45.186;9.792;2023-11-21T02:03:22;56.85;;;41.40;;
51296;SDS011;37380;45.186;9.792;2023-11-21T02:05:49;51.83;;;40.42;;
51296;SDS011;37380;45.186;9.792;2023-11-21T02:08:17;55.10;;;39.60;;
51296;SDS011;37380;45.186;9.792;2023-11-21T02:10:46;53.85;;;41.42;;
51296;SDS011;37380;45.186;9.792;2023-11-21T02:13:14;61.65;;;39.63;;
51296;SDS011;37380;45.186;9.792;2023-11-21T02:15:43;55.00;;;39.63;;
51296;SDS011;37380;45.186;9.792;2023-11-21T02:18:10;50.22;;;37.97;;
51296;SDS011;37380;45.186;9.792;2023-11-21T02:20:38;56.60;;;39.97;;
51296;SDS011;37380;45.186;9.792;2023-11-21T02:23:08;49.50;;;37.75;;
51296;SDS011;37380;45.186;9.792;2023-11-21T02:25:36;53.63;;;40.00;;
51296;SDS011;37380;45.186;9.792;2023-11-21T02:28:04;52.70;;;37.35;;
51296;SDS011;37380;45.186;9.792;2023-11-21T02:30:33;54.13;;;38.67;;
51296;SDS011;37380;45.186;9.792;2023-11-21T02:33:01;59.03;;;37.50;;
51296;SDS011;37380;45.186;9.792;2023-11-21T02:35:30;41.78;;;35.10;;
51296;SDS011;37380;45.186;9.792;2023-11-21T02:37:58;48.08;;;36.30;;
51296;SDS011;37380;45.186;9.792;2023-11-21T02:40:25;52.85;;;37.78;;
51296;SDS011;37380;45.186;9.792;2023-11-21T02:42:55;53.15;;;36.42;;
51296;SDS011;37380;45.186;9.792;2023-11-21T02:45:26;46.35;;;36.08;;
51296;SDS011;37380;45.186;9.792;2023-11-21T02:47:53;56.35;;;36.40;;
51296;SDS011;37380;45.186;9.792;2023-11-21T02:50:24;46.63;;;35.67;;
51296;SDS011;37380;45.186;9.792;2023-11-21T02:52:51;55.08;;;36.22;;
51296;SDS011;37380;45.186;9.792;2023-11-21T02:55:19;53.35;;;35.97;;
51296;SDS011;37380;45.186;9.792;2023-11-21T02:57:46;48.00;;;35.38;;
51296;SDS011;37380;45.186;9.792;2023-11-21T03:00:14;45.88;;;35.58;;
51296;SDS011;37380;45.186;9.792;2023-11-21T03:02:42;49.05;;;34.83;;
51296;SDS011;37380;45.186;9.792;2023-11-21T03:05:10;44.65;;;35.20;;
51296;SDS011;37380;45.186;9.792;2023-11-21T03:07:39;58.35;;;36.83;;
51296;SDS011;37380;45.186;9.792;2023-11-21T03:10:08;42.72;;;33.88;;
51296;SDS011;37380;45.186;9.792;2023-11-21T03:12:39;45.72;;;35.05;;
51296;SDS011;37380;45.186;9.792;2023-11-21T03:15:07;53.00;;;35.47;;
51296;SDS011;37380;45.186;9.792;2023-11-21T03:17:36;61.33;;;37.97;;
51296;SDS011;37380;45.186;9.792;2023-11-21T03:20:04;52.15;;;36.53;;
51296;SDS011;37380;45.186;9.792;2023-11-21T03:22:38;66.80;;;38.17;;
51296;SDS011;37380;45.186;9.792;2023-11-21T03:25:06;52.83;;;36.08;;
51296;SDS011;37380;45.186;9.792;2023-11-21T03:27:37;54.38;;;38.58;;
51296;SDS011;37380;45.186;9.792;2023-11-21T03:30:07;55.63;;;39.17;;
51296;SDS011;37380;45.186;9.792;2023-11-21T03:32:35;54.95;;;39.17;;
51296;SDS011;37380;45.186;9.792;2023-11-21T03:35:02;50.17;;;40.03;;
51296;SDS011;37380;45.186;9.792;2023-11-21T03:37:30;54.30;;;37.97;;
51296;SDS011;37380;45.186;9.792;2023-11-21T03:39:57;52.95;;;37.35;;
51296;SDS011;37380;45.186;9.792;2023-11-21T03:42:25;57.75;;;38.08;;
51296;SDS011;37380;45.186;9.792;2023-11-21T03:44:53;62.72;;;40.70;;
51296;SDS011;37380;45.186;9.792;2023-11-21T03:47:20;48.03;;;38.03;;
51296;SDS011;37380;45.186;9.792;2023-11-21T03:49:48;62.28;;;41.88;;
51296;SDS011;37380;45.186;9.792;2023-11-21T03:52:15;60.38;;;41.47;;
51296;SDS011;37380;45.186;9.792;2023-11-21T03:54:43;57.15;;;42.92;;
51296;SDS011;37380;45.186;9.792;2023-11-21T03:57:12;53.53;;;41.13;;
51296;SDS011;37380;45.186;9.792;2023-11-21T03:59:39;63.88;;;41.50;;
51296;SDS011;37380;45.186;9.792;2023-11-21T04:02:08;57.85;;;40.13;;
51296;SDS011;37380;45.186;9.792;2023-11-21T04:04:35;57.47;;;40.67;;
51296;SDS011;37380;45.186;9.792;2023-11-21T04:07:03;57.75;;;42.30;;
51296;SDS011;37380;45.186;9.792;2023-11-21T04:09:31;60.55;;;42.50;;
51296;SDS011;37380;45.186;9.792;2023-11-21T04:11:58;53.40;;;42.45;;
51296;SDS011;37380;45.186;9.792;2023-11-21T04:14:26;51.75;;;40.25;;
51296;SDS011;37380;45.186;9.792;2023-11-21T04:16:53;51.30;;;41.65;;
51296;SDS011;37380;45.186;9.792;2023-11-21T04:19:20;64.22;;;45.63;;
51296;SDS011;37380;45.186;9.792;2023-11-21T04:21:49;58.45;;;44.85;;
51296;SDS011;37380;45.186;9.792;2023-11-21T04:24:16;62.50;;;43.92;;
51296;SDS011;37380;45.186;9.792;2023-11-21T04:26:44;58.80;;;40.90;;
51296;SDS011;37380;45.186;9.792;2023-11-21T04:29:11;61.72;;;46.40;;
51296;SDS011;37380;45.186;9.792;2023-11-21T04:31:38;55.65;;;42.97;;
51296;SDS011;37380;45.186;9.792;2023-11-21T04:34:05;57.83;;;42.83;;
51296;SDS011;37380;45.186;9.792;2023-11-21T04:36:32;61.40;;;44.40;;
51296;SDS011;37380;45.186;9.792;2023-11-21T04:39:00;53.17;;;41.17;;
51296;SDS011;37380;45.186;9.792;2023-11-21T04:41:27;58.55;;;41.75;;
51296;SDS011;37380;45.186;9.792;2023-11-21T04:43:54;52.65;;;40.90;;
51296;SDS011;37380;45.186;9.792;2023-11-21T04:46:21;55.47;;;42.75;;
51296;SDS011;37380;45.186;9.792;2023-11-21T04:48:48;57.35;;;41.65;;
51296;SDS011;37380;45.186;9.792;2023-11-21T04:51:16;50.05;;;41.20;;
51296;SDS011;37380;45.186;9.792;2023-11-21T04:53:43;54.55;;;40.67;;
51296;SDS011;37380;45.186;9.792;2023-11-21T04:56:10;56.30;;;44.55;;
51296;SDS011;37380;45.186;9.792;2023-11-21T04:58:37;62.35;;;45.15;;
51296;SDS011;37380;45.186;9.792;2023-11-21T05:01:09;53.47;;;42.03;;
51296;SDS011;37380;45.186;9.792;2023-11-21T05:03:36;62.42;;;41.03;;
51296;SDS011;37380;45.186;9.792;2023-11-21T05:06:06;53.17;;;42.55;;
51296;SDS011;37380;45.186;9.792;2023-11-21T05:08:33;52.38;;;41.25;;
51296;SDS011;37380;45.186;9.792;2023-11-21T05:11:00;59.13;;;42.45;;
51296;SDS011;37380;45.186;9.792;2023-11-21T05:13:27;58.28;;;45.22;;
51296;SDS011;37380;45.186;9.792;2023-11-21T05:15:55;58.40;;;41.97;;
51296;SDS011;37380;45.186;9.792;2023-11-21T05:18:25;56.88;;;42.40;;
51296;SDS011;37380;45.186;9.792;2023-11-21T05:20:57;52.15;;;41.22;;
51296;SDS011;37380;45.186;9.792;2023-11-21T05:23:24;61.83;;;41.38;;
51296;SDS011;37380;45.186;9.792;2023-11-21T05:25:51;53.83;;;42.30;;
51296;SDS011;37380;45.186;9.792;2023-11-21T05:28:19;63.60;;;40.95;;
51296;SDS011;37380;45.186;9.792;2023-11-21T05:30:46;54.22;;;43.55;;
51296;SDS011;37380;45.186;9.792;2023-11-21T05:33:13;67.57;;;39.97;;
51296;SDS011;37380;45.186;9.792;2023-11-21T05:35:41;52.60;;;40.72;;
51296;SDS011;37380;45.186;9.792;2023-11-21T05:38:08;69.30;;;40.08;;
51296;SDS011;37380;45.186;9.792;2023-11-21T05:40:35;53.08;;;42.58;;
51296;SDS011;37380;45.186;9.792;2023-11-21T05:43:03;54.90;;;44.25;;
51296;SDS011;37380;45.186;9.792;2023-11-21T05:45:32;60.80;;;45.33;;
51296;SDS011;37380;45.186;9.792;2023-11-21T05:47:59;57.95;;;43.75;;
51296;SDS011;37380;45.186;9.792;2023-11-21T05:50:26;57.42;;;43.20;;
51296;SDS011;37380;45.186;9.792;2023-11-21T05:52:53;65.05;;;48.13;;
51296;SDS011;37380;45.186;9.792;2023-11-21T05:55:22;63.70;;;46.97;;
51296;SDS011;37380;45.186;9.792;2023-11-21T05:57:52;60.20;;;44.38;;
51296;SDS011;37380;45.186;9.792;2023-11-21T06:00:20;66.00;;;44.40;;
51296;SDS011;37380;45.186;9.792;2023-11-21T06:02:52;62.90;;;43.22;;
51296;SDS011;37380;45.186;9.792;2023-11-21T06:05:22;56.47;;;44.38;;
51296;SDS011;37380;45.186;9.792;2023-11-21T06:07:52;69.15;;;45.70;;
51296;SDS011;37380;45.186;9.792;2023-11-21T06:10:22;57.45;;;45.78;;
51296;SDS011;37380;45.186;9.792;2023-11-21T06:12:51;69.55;;;44.22;;
51296;SDS011;37380;45.186;9.792;2023-11-21T06:15:20;59.33;;;45.47;;
51296;SDS011;37380;45.186;9.792;2023-11-21T06:17:49;61.28;;;46.83;;
51296;SDS011;37380;45.186;9.792;2023-11-21T06:20:20;58.88;;;47.05;;
51296;SDS011;37380;45.186;9.792;2023-11-21T06:22:50;60.10;;;47.35;;
51296;SDS011;37380;45.186;9.792;2023-11-21T06:25:17;63.58;;;47.88;;
51296;SDS011;37380;45.186;9.792;2023-11-21T06:27:46;59.08;;;46.25;;
51296;SDS011;37380;45.186;9.792;2023-11-21T06:30:14;64.40;;;44.20;;
51296;SDS011;37380;45.186;9.792;2023-11-21T06:32:43;65.07;;;47.75;;
51296;SDS011;37380;45.186;9.792;2023-11-21T06:35:14;74.88;;;45.90;;
51296;SDS011;37380;45.186;9.792;2023-11-21T06:37:44;62.15;;;46.25;;
51296;SDS011;37380;45.186;9.792;2023-11-21T06:40:17;68.82;;;50.95;;
51296;SDS011;37380;45.186;9.792;2023-11-21T06:42:46;65.28;;;48.22;;
51296;SDS011;37380;45.186;9.792;2023-11-21T06:45:14;66.32;;;51.22;;
51296;SDS011;37380;45.186;9.792;2023-11-21T06:47:42;67.22;;;52.72;;
51296;SDS011;37380;45.186;9.792;2023-11-21T06:50:10;68.05;;;52.13;;
51296;SDS011;37380;45.186;9.792;2023-11-21T06:52:37;77.68;;;55.58;;
51296;SDS011;37380;45.186;9.792;2023-11-21T06:55:06;69.25;;;54.60;;
51296;SDS011;37380;45.186;9.792;2023-11-21T06:57:35;71.47;;;53.78;;
51296;SDS011;37380;45.186;9.792;2023-11-21T07:00:03;69.18;;;55.72;;
51296;SDS011;37380;45.186;9.792;2023-11-21T07:02:31;79.80;;;55.22;;
51296;SDS011;37380;45.186;9.792;2023-11-21T07:04:58;65.57;;;52.78;;
51296;SDS011;37380;45.186;9.792;2023-11-21T07:07:26;68.28;;;53.40;;
51296;SDS011;37380;45.186;9.792;2023-11-21T07:09:54;70.65;;;52.88;;
51296;SDS011;37380;45.186;9.792;2023-11-21T07:12:21;76.28;;;55.40;;
51296;SDS011;37380;45.186;9.792;2023-11-21T07:14:50;76.30;;;54.53;;
51296;SDS011;37380;45.186;9.792;2023-11-21T07:17:17;73.55;;;52.83;;
51296;SDS011;37380;45.186;9.792;2023-11-21T07:19:44;69.22;;;54.05;;
51296;SDS011;37380;45.186;9.792;2023-11-21T07:22:12;68.93;;;52.75;;
51296;SDS011;37380;45.186;9.792;2023-11-21T07:24:40;77.43;;;56.80;;
51296;SDS011;37380;45.186;9.792;2023-11-21T07:27:07;66.95;;;52.15;;
51296;SDS011;37380;45.186;9.792;2023-11-21T07:29:35;66.93;;;53.83;;
51296;SDS011;37380;45.186;9.792;2023-11-21T07:32:02;69.65;;;52.03;;
51296;SDS011;37380;45.186;9.792;2023-11-21T07:34:30;67.93;;;51.78;;
51296;SDS011;37380;45.186;9.792;2023-11-21T07:36:57;71.95;;;53.67;;
51296;SDS011;37380;45.186;9.792;2023-11-21T07:39:24;66.72;;;49.78;;
51296;SDS011;37380;45.186;9.792;2023-11-21T07:41:52;76.60;;;53.42;;
51296;SDS011;37380;45.186;9.792;2023-11-21T07:44:19;75.43;;;56.70;;
51296;SDS011;37380;45.186;9.792;2023-11-21T07:46:47;68.72;;;52.58;;
51296;SDS011;37380;45.186;9.792;2023-11-21T07:49:16;65.70;;;53.58;;
51296;SDS011;37380;45.186;9.792;2023-11-21T07:51:47;69.40;;;52.85;;
51296;SDS011;37380;45.186;9.792;2023-11-21T07:54:15;69.43;;;53.33;;
51296;SDS011;37380;45.186;9.792;2023-11-21T07:56:43;68.22;;;52.28;;
51296;SDS011;37380;45.186;9.792;2023-11-21T07:59:10;72.15;;;54.58;;
51296;SDS011;37380;45.186;9.792;2023-11-21T08:01:37;75.15;;;54.58;;
51296;SDS011;37380;45.186;9.792;2023-11-21T08:04:07;68.82;;;53.45;;
51296;SDS011;37380;45.186;9.792;2023-11-21T08:06:35;78.75;;;51.58;;
51296;SDS011;37380;45.186;9.792;2023-11-21T08:09:02;69.88;;;51.45;;
51296;SDS011;37380;45.186;9.792;2023-11-21T08:11:29;81.55;;;54.53;;
51296;SDS011;37380;45.186;9.792;2023-11-21T08:13:59;65.72;;;52.60;;
51296;SDS011;37380;45.186;9.792;2023-11-21T08:16:26;60.97;;;51.70;;
51296;SDS011;37380;45.186;9.792;2023-11-21T08:18:54;80.78;;;54.30;;
51296;SDS011;37380;45.186;9.792;2023-11-21T08:21:21;69.78;;;52.38;;
51296;SDS011;37380;45.186;9.792;2023-11-21T08:23:51;68.72;;;51.15;;
51296;SDS011;37380;45.186;9.792;2023-11-21T08:26:24;64.25;;;50.90;;
51296;SDS011;37380;45.186;9.792;2023-11-21T08:28:51;61.40;;;50.22;;
51296;SDS011;37380;45.186;9.792;2023-11-21T08:31:24;87.50;;;51.53;;
51296;SDS011;37380;45.186;9.792;2023-11-21T08:33:54;64.93;;;48.58;;
51296;SDS011;37380;45.186;9.792;2023-11-21T08:36:22;68.72;;;52.22;;
51296;SDS011;37380;45.186;9.792;2023-11-21T08:38:51;68.50;;;53.17;;
51296;SDS011;37380;45.186;9.792;2023-11-21T08:41:21;68.07;;;50.00;;
51296;SDS011;37380;45.186;9.792;2023-11-21T08:43:52;67.75;;;50.58;;
51296;SDS011;37380;45.186;9.792;2023-11-21T08:46:21;73.80;;;52.45;;
51296;SDS011;37380;45.186;9.792;2023-11-21T08:48:48;70.05;;;51.45;;
51296;SDS011;37380;45.186;9.792;2023-11-21T08:51:15;65.40;;;49.53;;
51296;SDS011;37380;45.186;9.792;2023-11-21T08:53:43;68.15;;;52.63;;
51296;SDS011;37380;45.186;9.792;2023-11-21T08:56:13;72.40;;;53.45;;
51296;SDS011;37380;45.186;9.792;2023-11-21T08:58:41;66.90;;;51.88;;
51296;SDS011;37380;45.186;9.792;2023-11-21T09:01:08;74.80;;;55.13;;
51296;SDS011;37380;45.186;9.792;2023-11-21T09:03:35;63.13;;;49.72;;
51296;SDS011;37380;45.186;9.792;2023-11-21T09:06:03;69.25;;;51.95;;
51296;SDS011;37380;45.186;9.792;2023-11-21T09:08:31;62.22;;;50.72;;
51296;SDS011;37380;45.186;9.792;2023-11-21T09:10:58;66.10;;;53.28;;
51296;SDS011;37380;45.186;9.792;2023-11-21T09:13:26;75.70;;;56.25;;
51296;SDS011;37380;45.186;9.792;2023-11-21T09:15:53;75.28;;;58.20;;
51296;SDS011;37380;45.186;9.792;2023-11-21T09:18:20;69.18;;;55.65;;
51296;SDS011;37380;45.186;9.792;2023-11-21T09:20:48;75.10;;;56.47;;
51296;SDS011;37380;45.186;9.792;2023-11-21T09:23:15;70.38;;;57.58;;
51296;SDS011;37380;45.186;9.792;2023-11-21T09:25:42;80.72;;;58.65;;
51296;SDS011;37380;45.186;9.792;2023-11-21T09:28:13;74.30;;;56.58;;
51296;SDS011;37380;45.186;9.792;2023-11-21T09:30:40;70.15;;;58.30;;
51296;SDS011;37380;45.186;9.792;2023-11-21T09:33:07;78.57;;;55.63;;
51296;SDS011;37380;45.186;9.792;2023-11-21T09:35:37;69.18;;;55.83;;
51296;SDS011;37380;45.186;9.792;2023-11-21T09:38:05;79.65;;;58.40;;
51296;SDS011;37380;45.186;9.792;2023-11-21T09:40:37;78.07;;;60.35;;
51296;SDS011;37380;45.186;9.792;2023-11-21T09:43:08;77.80;;;58.75;;
51296;SDS011;37380;45.186;9.792;2023-11-21T09:45:46;78.80;;;60.95;;
51296;SDS011;37380;45.186;9.792;2023-11-21T09:48:15;79.25;;;60.22;;
51296;SDS011;37380;45.186;9.792;2023-11-21T09:50:43;81.28;;;59.78;;
51296;SDS011;37380;45.186;9.792;2023-11-21T09:55:52;76.35;;;58.88;;
51296;SDS011;37380;45.186;9.792;2023-11-21T09:58:21;79.15;;;62.45;;
51296;SDS011;37380;45.186;9.792;2023-11-21T10:00:52;83.50;;;61.22;;
51296;SDS011;37380;45.186;9.792;2023-11-21T10:03:20;81.45;;;62.55;;
51296;SDS011;37380;45.186;9.792;2023-11-21T10:05:48;75.65;;;62.22;;
51296;SDS011;37380;45.186;9.792;2023-11-21T10:08:17;77.15;;;61.88;;
51296;SDS011;37380;45.186;9.792;2023-11-21T10:10:49;80.32;;;59.67;;
51296;SDS011;37380;45.186;9.792;2023-11-21T10:13:19;80.32;;;63.80;;
51296;SDS011;37380;45.186;9.792;2023-11-21T10:15:49;76.47;;;61.58;;
51296;SDS011;37380;45.186;9.792;2023-11-21T10:18:19;84.45;;;58.92;;
51296;SDS011;37380;45.186;9.792;2023-11-21T10:20:46;80.70;;;62.35;;
51296;SDS011;37380;45.186;9.792;2023-11-21T10:23:20;78.20;;;62.08;;
51296;SDS011;37380;45.186;9.792;2023-11-21T10:25:50;75.88;;;61.50;;
51296;SDS011;37380;45.186;9.792;2023-11-21T10:28:24;74.07;;;59.53;;
51296;SDS011;37380;45.186;9.792;2023-11-21T10:30:51;72.95;;;61.00;;
51296;SDS011;37380;45.186;9.792;2023-11-21T10:33:21;74.38;;;59.78;;
51296;SDS011;37380;45.186;9.792;2023-11-21T10:35:56;88.45;;;61.50;;
51296;SDS011;37380;45.186;9.792;2023-11-21T10:38:23;77.70;;;59.53;;
51296;SDS011;37380;45.186;9.792;2023-11-21T10:40:51;75.93;;;59.72;;
51296;SDS011;37380;45.186;9.792;2023-11-21T10:43:19;78.68;;;60.75;;
51296;SDS011;37380;45.186;9.792;2023-11-21T10:45:47;86.57;;;60.75;;
51296;SDS011;37380;45.186;9.792;2023-11-21T10:48:14;85.07;;;58.13;;
51296;SDS011;37380;45.186;9.792;2023-11-21T10:50:43;91.68;;;61.33;;
51296;SDS011;37380;45.186;9.792;2023-11-21T10:53:12;75.53;;;60.50;;
51296;SDS011;37380;45.186;9.792;2023-11-21T10:55:40;73.47;;;57.05;;
51296;SDS011;37380;45.186;9.792;2023-11-21T10:58:07;74.80;;;58.58;;
51296;SDS011;37380;45.186;9.792;2023-11-21T11:00:37;73.38;;;57.55;;
51296;SDS011;37380;45.186;9.792;2023-11-21T11:03:07;76.10;;;62.03;;
51296;SDS011;37380;45.186;9.792;2023-11-21T11:05:46;73.25;;;57.97;;
51296;SDS011;37380;45.186;9.792;2023-11-21T11:08:20;76.20;;;58.55;;
51296;SDS011;37380;45.186;9.792;2023-11-21T11:10:54;73.47;;;59.35;;
51296;SDS011;37380;45.186;9.792;2023-11-21T11:13:22;71.22;;;55.85;;
51296;SDS011;37380;45.186;9.792;2023-11-21T11:15:51;76.40;;;61.90;;
51296;SDS011;37380;45.186;9.792;2023-11-21T11:18:27;75.72;;;61.25;;
51296;SDS011;37380;45.186;9.792;2023-11-21T11:21:40;76.63;;;58.88;;
51296;SDS011;37380;45.186;9.792;2023-11-21T11:24:15;72.53;;;55.83;;
51296;SDS011;37380;45.186;9.792;2023-11-21T11:29:56;70.63;;;56.47;;
51296;SDS011;37380;45.186;9.792;2023-11-21T11:35:41;73.70;;;57.20;;
51296;SDS011;37380;45.186;9.792;2023-11-21T11:38:10;69.45;;;55.92;;
51296;SDS011;37380;45.186;9.792;2023-11-21T11:43:08;75.85;;;56.15;;
51296;SDS011;37380;45.186;9.792;2023-11-21T11:45:36;71.80;;;54.88;;
51296;SDS011;37380;45.186;9.792;2023-11-21T11:48:08;67.57;;;54.65;;
51296;SDS011;37380;45.186;9.792;2023-11-21T11:50:42;73.43;;;57.42;;
51296;SDS011;37380;45.186;9.792;2023-11-21T11:53:37;74.03;;;55.30;;
51296;SDS011;37380;45.186;9.792;2023-11-21T11:58:54;75.05;;;54.10;;
51296;SDS011;37380;45.186;9.792;2023-11-21T12:01:24;65.88;;;53.45;;
51296;SDS011;37380;45.186;9.792;2023-11-21T12:06:59;68.90;;;52.90;;
51296;SDS011;37380;45.186;9.792;2023-11-21T12:09:30;66.32;;;52.78;;
51296;SDS011;37380;45.186;9.792;2023-11-21T12:11:59;80.82;;;58.80;;
51296;SDS011;37380;45.186;9.792;2023-11-21T12:14:27;78.82;;;57.17;;
51296;SDS011;37380;45.186;9.792;2023-11-21T12:16:55;66.40;;;50.88;;
51296;SDS011;37380;45.186;9.792;2023-11-21T12:19:23;69.00;;;56.00;;
51296;SDS011;37380;45.186;9.792;2023-11-21T12:21:50;78.53;;;54.95;;
51296;SDS011;37380;45.186;9.792;2023-11-21T12:24:17;76.13;;;53.17;;
51296;SDS011;37380;45.186;9.792;2023-11-21T12:26:44;74.07;;;52.25;;
51296;SDS011;37380;45.186;9.792;2023-11-21T12:29:12;66.38;;;47.83;;
51296;SDS011;37380;45.186;9.792;2023-11-21T12:31:39;73.10;;;49.42;;
51296;SDS011;37380;45.186;9.792;2023-11-21T12:34:07;63.80;;;52.53;;
51296;SDS011;37380;45.186;9.792;2023-11-21T12:36:38;64.95;;;50.38;;
51296;SDS011;37380;45.186;9.792;2023-11-21T12:39:05;80.55;;;50.42;;
51296;SDS011;37380;45.186;9.792;2023-11-21T12:41:35;74.50;;;49.85;;
51296;SDS011;37380;45.186;9.792;2023-11-21T12:44:02;72.68;;;50.83;;
51296;SDS011;37380;45.186;9.792;2023-11-21T12:46:30;73.65;;;52.35;;
51296;SDS011;37380;45.186;9.792;2023-11-21T12:49:00;69.25;;;50.72;;
51296;SDS011;37380;45.186;9.792;2023-11-21T12:51:27;75.78;;;52.08;;
51296;SDS011;37380;45.186;9.792;2023-11-21T12:53:56;71.15;;;50.78;;
51296;SDS011;37380;45.186;9.792;2023-11-21T12:56:23;64.80;;;51.20;;
51296;SDS011;37380;45.186;9.792;2023-11-21T12:58:50;66.00;;;49.45;;
51296;SDS011;37380;45.186;9.792;2023-11-21T13:01:25;70.15;;;53.22;;
51296;SDS011;37380;45.186;9.792;2023-11-21T13:03:56;69.63;;;48.10;;
51296;SDS011;37380;45.186;9.792;2023-11-21T13:06:25;72.30;;;48.85;;
51296;SDS011;37380;45.186;9.792;2023-11-21T13:08:53;70.22;;;47.67;;
51296;SDS011;37380;45.186;9.792;2023-11-21T13:11:24;64.70;;;49.25;;
51296;SDS011;37380;45.186;9.792;2023-11-21T13:13:53;69.45;;;51.08;;
51296;SDS011;37380;45.186;9.792;2023-11-21T13:16:20;73.65;;;48.38;;
51296;SDS011;37380;45.186;9.792;2023-11-21T13:18:48;71.40;;;50.25;;
51296;SDS011;37380;45.186;9.792;2023-11-21T13:21:15;66.43;;;47.75;;
51296;SDS011;37380;45.186;9.792;2023-11-21T13:23:44;77.20;;;53.63;;
51296;SDS011;37380;45.186;9.792;2023-11-21T13:26:13;81.03;;;54.67;;
51296;SDS011;37380;45.186;9.792;2023-11-21T13:28:42;61.63;;;45.97;;
51296;SDS011;37380;45.186;9.792;2023-11-21T13:31:13;61.28;;;45.38;;
51296;SDS011;37380;45.186;9.792;2023-11-21T13:33:53;66.88;;;44.10;;
51296;SDS011;37380;45.186;9.792;2023-11-21T13:36:31;66.05;;;46.53;;
51296;SDS011;37380;45.186;9.792;2023-11-21T13:39:00;66.55;;;43.22;;
51296;SDS011;37380;45.186;9.792;2023-11-21T13:41:34;66.55;;;39.75;;
51296;SDS011;37380;45.186;9.792;2023-11-21T13:44:01;62.80;;;43.40;;
51296;SDS011;37380;45.186;9.792;2023-11-21T13:46:54;71.03;;;48.67;;
51296;SDS011;37380;45.186;9.792;2023-11-21T13:49:24;64.22;;;44.05;;
51296;SDS011;37380;45.186;9.792;2023-11-21T13:51:52;70.30;;;46.10;;
51296;SDS011;37380;45.186;9.792;2023-11-21T13:54:22;63.25;;;44.55;;
51296;SDS011;37380;45.186;9.792;2023-11-21T13:56:52;71.95;;;45.95;;
51296;SDS011;37380;45.186;9.792;2023-11-21T13:59:19;63.30;;;43.45;;
51296;SDS011;37380;45.186;9.792;2023-11-21T14:01:52;57.72;;;40.85;;
51296;SDS011;37380;45.186;9.792;2023-11-21T14:04:20;67.63;;;44.15;;
51296;SDS011;37380;45.186;9.792;2023-11-21T14:07:02;63.42;;;43.28;;
51296;SDS011;37380;45.186;9.792;2023-11-21T14:09:47;65.55;;;41.53;;
51296;SDS011;37380;45.186;9.792;2023-11-21T14:12:16;64.05;;;43.92;;
51296;SDS011;37380;45.186;9.792;2023-11-21T14:14:43;65.10;;;44.15;;
51296;SDS011;37380;45.186;9.792;2023-11-21T14:17:16;67.68;;;43.33;;
51296;SDS011;37380;45.186;9.792;2023-11-21T14:19:43;67.00;;;43.55;;
51296;SDS011;37380;45.186;9.792;2023-11-21T14:22:11;59.88;;;42.63;;
51296;SDS011;37380;45.186;9.792;2023-11-21T14:24:39;59.88;;;40.63;;
51296;SDS011;37380;45.186;9.792;2023-11-21T14:27:13;60.85;;;44.28;;
51296;SDS011;37380;45.186;9.792;2023-11-21T14:29:44;62.63;;;42.33;;
51296;SDS011;37380;45.186;9.792;2023-11-21T14:32:12;74.28;;;48.15;;
51296;SDS011;37380;45.186;9.792;2023-11-21T14:34:41;62.40;;;43.33;;
51296;SDS011;37380;45.186;9.792;2023-11-21T14:37:12;67.53;;;45.45;;
51296;SDS011;37380;45.186;9.792;2023-11-21T14:39:40;68.22;;;46.55;;
51296;SDS011;37380;45.186;9.792;2023-11-21T14:42:11;66.53;;;45.22;;
51296;SDS011;37380;45.186;9.792;2023-11-21T14:44:42;66.53;;;45.55;;
51296;SDS011;37380;45.186;9.792;2023-11-21T14:47:09;70.88;;;44.28;;